Sira, Russia
Current Conditions -  °F | °C
As of 3:00 PM on Monday 20 Oct 2014 (Local Time) from UNAA Reporting Station
Scattered Clouds Scattered Clouds  
Wind Chill: 19°   Ceiling: Unl
Heat Index: 25°   Visibility: 6mi
Dew Point: 18°   Wind: 4mph
Humidity: 74%   Direction: 230°SW
Pressure: 29.97"   Gusts: NA
Location:  54.5°N, 89.93°E
Report Text: UNAA 200800Z 23002MPS 9999 FEW040 SCT100 M04/M08 Q1015 NOSIGRMK QFE739 20190055
Loading
Personal Weather Stations






























Interactive Weather Map
Tropical Storm Tracking
New forecast layout! Learn more

10-Day Weather Forecast

Advertisements
Track Severe Weather on mobile